Shinkyokuhoumaru — JD2017 — position and weather

sailwx.info

Track history (hours):
 
Tides and Currents Weather Stations Pressure Air Temp Water Temp Dewpoint Dewpoint Depression Visibility Wind Speed Wind Dir Waves Ship Positions

Shinkyokuhoumaru

Last reported at 2018-Feb-18 09:16 UTC. Time now 2018-Feb-19 01:40 UTC.
Position N 34°34' E 138°16'.

Length 52 m; draft 3 m.

Type: Tanker. MMSI: 430253169.

Date/timePositionNaut miles runAvg speedWind from/ knotsBaromVisibWave heightAir tempDewpointWater temp
2018-Feb-18 09:16N 34°34' E 138°16'6 8.5
2018-Feb-18 08:30N 34°36' E 138°24'4 8.5
2018-Feb-18 07:59N 34°37' E 138°29'6 9.7
2018-Feb-18 07:23N 34°36' E 138°36'411.0
2018-Feb-18 07:00N 34°36' E 138°41'510.3
2018-Feb-18 06:29N 34°35' E 138°47'510.1
2018-Feb-18 06:00N 34°36' E 138°53'5 9.7
2018-Feb-18 05:29N 34°38' E 138°59'510.0
2018-Feb-18 05:00N 34°42' E 139°02'611.2
2018-Feb-18 04:27N 34°47' E 139°06'811.6
2018-Feb-18 03:46N 34°54' E 139°12'410.1
2018-Feb-18 03:23N 34°56' E 139°15'4 9.7
2018-Feb-18 03:00N 34°58' E 139°19'5 9.3
2018-Feb-18 02:28N 35°00' E 139°25'4 9.5
2018-Feb-18 02:00N 35°02' E 139°29'510.3
2018-Feb-18 01:29N 35°05' E 139°35'611.2
2018-Feb-18 00:59N 35°07' E 139°41'611.3
2018-Feb-18 00:30N 35°12' E 139°45'510.8
2018-Feb-18 00:00N 35°17' E 139°45'611.5
2018-Feb-17 23:30N 35°22' E 139°42'611.0
2018-Feb-17 23:00N 35°27' E 139°46'4 7.1
2018-Feb-17 22:30N 35°29' E 139°49'0 0.0
2018-Feb-17 22:00N 35°29' E 139°49'0 0.0
2018-Feb-17 21:30N 35°29' E 139°49'0 0.0
2018-Feb-17 20:57N 35°29' E 139°49'0 0.0
2018-Feb-17 20:27N 35°29' E 139°49'0 0.0
2018-Feb-17 20:00N 35°29' E 139°49'0 0.0
2018-Feb-17 19:27N 35°29' E 139°49'0 0.0
2018-Feb-17 18:57N 35°29' E 139°49'0 0.0
2018-Feb-17 18:30N 35°29' E 139°49'0 0.0
2018-Feb-17 18:00N 35°29' E 139°49'0 0.0
2018-Feb-17 17:30N 35°29' E 139°49'0 0.0
2018-Feb-17 17:00N 35°29' E 139°49'0 0.0
2018-Feb-17 16:30N 35°29' E 139°49'0 0.0
2018-Feb-17 16:00N 35°29' E 139°49'0 0.0
2018-Feb-17 15:30N 35°29' E 139°49'0 0.0
2018-Feb-17 14:54N 35°29' E 139°49'0 0.0
2018-Feb-17 14:30N 35°29' E 139°49'0 0.0
2018-Feb-17 14:00N 35°29' E 139°49'0 0.0
2018-Feb-17 13:30N 35°29' E 139°49'0 0.0
2018-Feb-17 13:00N 35°29' E 139°49'0 0.0
2018-Feb-17 12:27N 35°29' E 139°49'0 0.0
2018-Feb-17 12:00N 35°29' E 139°49'0 0.0
2018-Feb-17 11:27N 35°29' E 139°49'0 0.0
2018-Feb-17 10:57N 35°29' E 139°49'0 0.0
2018-Feb-17 10:29N 35°29' E 139°49'0 0.0
2018-Feb-17 09:59N 35°29' E 139°49'0 0.0
2018-Feb-17 09:30N 35°29' E 139°49'0 0.0
2018-Feb-17 08:59N 35°29' E 139°49'0 0.0
2018-Feb-17 08:29N 35°29' E 139°49'0 0.3
2018-Feb-17 08:00N 35°29' E 139°49'4 7.1
2018-Feb-17 07:30N 35°32' E 139°46'0 0.0
2018-Feb-17 06:59N 35°32' E 139°46'0 0.0
2018-Feb-17 06:29N 35°32' E 139°46'0 0.0
2018-Feb-17 05:59N 35°32' E 139°46'0 0.0
2018-Feb-17 05:29N 35°32' E 139°46'0 0.0
2018-Feb-17 04:59N 35°32' E 139°46'0 0.0
2018-Feb-17 04:29N 35°32' E 139°46'0 0.0
2018-Feb-17 03:56N 35°32' E 139°46'0 0.0
2018-Feb-17 03:29N 35°32' E 139°46'0 0.0
2018-Feb-17 02:59N 35°32' E 139°46'0 0.0
2018-Feb-17 02:29N 35°32' E 139°46'0 0.0
2018-Feb-17 01:56N 35°32' E 139°46'0 0.0
2018-Feb-17 01:29N 35°32' E 139°46'0 0.0
2018-Feb-17 00:59N 35°32' E 139°46'0 0.0
2018-Feb-17 00:29N 35°32' E 139°46'0 0.0
2018-Feb-16 23:59N 35°32' E 139°46'0 0.1
2018-Feb-16 23:30N 35°32' E 139°46'1 2.6
2018-Feb-16 23:00N 35°30' E 139°47'2 4.6
2018-Feb-16 22:29N 35°29' E 139°49'0 0.0
2018-Feb-16 21:53N 35°29' E 139°49'0 0.0
2018-Feb-16 21:29N 35°29' E 139°49'0 0.0
2018-Feb-16 20:59N 35°29' E 139°49'0 0.0
2018-Feb-16 20:29N 35°29' E 139°49'0 0.0
2018-Feb-16 19:59N 35°29' E 139°49'0 0.0
2018-Feb-16 19:23N 35°29' E 139°49'3 7.6
2018-Feb-16 19:00N 35°27' E 139°47'611.2
2018-Feb-16 18:30N 35°21' E 139°45'510.4
2018-Feb-16 18:00N 35°16' E 139°46'510.8
2018-Feb-16 17:30N 35°11' E 139°47'510.5
2018-Feb-16 17:00N 35°06' E 139°45'510.6
2018-Feb-16 16:30N 35°03' E 139°39'1412.3
2018-Feb-16 15:20N 34°55' E 139°25'513.3
2018-Feb-16 14:58N 34°53' E 139°20'613.0
2018-Feb-16 14:30N 34°49' E 139°14'912.4
2018-Feb-16 13:48N 34°43' E 139°06'311.6
2018-Feb-16 13:30N 34°40' E 139°03'612.3
2018-Feb-16 12:59N 34°36' E 138°58'612.2
2018-Feb-16 12:30N 34°34' E 138°51'711.7
2018-Feb-16 11:56N 34°34' E 138°43'511.6
2018-Feb-16 11:29N 34°33' E 138°36'711.4
2018-Feb-16 10:54N 34°33' E 138°28'611.3
2018-Feb-16 10:21N 34°32' E 138°21'411.9
2018-Feb-16 10:00N 34°32' E 138°16'165 9.1
2018-Feb-15 15:53N 33°49' E 135°03'511.5
2018-Feb-15 15:29N 33°52' E 134°60'511.1
2018-Feb-15 15:00N 33°57' E 134°56'611.1
2018-Feb-15 14:27N 34°01' E 134°51'511.1
2018-Feb-15 14:00N 34°05' E 134°47'611.6
2018-Feb-15 13:28N 34°10' E 134°43'611.9
2018-Feb-15 12:59N 34°15' E 134°39'510.6
2018-Feb-15 12:30N 34°17' E 134°33'5 9.9
2018-Feb-15 11:58N 34°19' E 134°27'510.2
2018-Feb-15 11:30N 34°21' E 134°22'7 0.3
2018-Feb-14 12:28N 34°25' E 134°15'611.4
2018-Feb-14 11:59N 34°25' E 134°22'611.5
2018-Feb-14 11:29N 34°28' E 134°28'511.5
2018-Feb-14 11:00N 34°30' E 134°34'611.5
2018-Feb-14 10:31N 34°32' E 134°41'611.9
2018-Feb-14 10:00N 34°34' E 134°47'612.5
2018-Feb-14 09:30N 34°36' E 134°55'611.4
2018-Feb-14 09:00N 34°37' E 135°01'611.6
2018-Feb-14 08:30N 34°36' E 135°08'511.0
2018-Feb-14 08:00N 34°37' E 135°15'510.8
2018-Feb-14 07:30N 34°39' E 135°21'3 6.6
2018-Feb-14 07:00N 34°40' E 135°25'0 0.0
2018-Feb-14 06:30N 34°40' E 135°25'0 0.0
2018-Feb-14 06:00N 34°40' E 135°25'0 0.0
2018-Feb-14 05:30N 34°40' E 135°25'0 0.0
2018-Feb-14 05:00N 34°40' E 135°25'0 0.0
2018-Feb-14 04:30N 34°40' E 135°25'0 0.1
2018-Feb-14 04:00N 34°40' E 135°25'0 0.3
2018-Feb-14 03:30N 34°40' E 135°25'0 0.0
2018-Feb-14 02:59N 34°40' E 135°25'0 0.1
2018-Feb-14 02:29N 34°40' E 135°25'0 0.0
2018-Feb-14 01:59N 34°40' E 135°25'0 0.0
2018-Feb-14 01:29N 34°40' E 135°25'0 0.0
2018-Feb-14 00:59N 34°40' E 135°25'0 0.0
2018-Feb-14 00:29N 34°40' E 135°25'0 0.0
2018-Feb-13 23:59N 34°40' E 135°25'0 0.1
2018-Feb-13 23:27N 34°40' E 135°25'3 6.1
2018-Feb-13 23:00N 34°39' E 135°22'0 0.1
2018-Feb-13 22:29N 34°39' E 135°22'0 0.0
2018-Feb-13 21:59N 34°39' E 135°22'0 0.0
2018-Feb-13 21:29N 34°39' E 135°22'0 0.0
2018-Feb-13 20:59N 34°39' E 135°22'0 0.0
2018-Feb-13 20:29N 34°39' E 135°22'0 0.0
2018-Feb-13 19:59N 34°39' E 135°22'0 0.0
2018-Feb-13 19:29N 34°39' E 135°22'0 0.0
2018-Feb-13 18:59N 34°39' E 135°22'0 0.0
2018-Feb-13 18:29N 34°39' E 135°22'0 0.1
2018-Feb-13 17:59N 34°39' E 135°22'0 0.0
2018-Feb-13 17:29N 34°39' E 135°22'0 0.0
2018-Feb-13 16:59N 34°39' E 135°22'0 0.0
2018-Feb-13 16:26N 34°39' E 135°22'0 0.0
2018-Feb-13 15:56N 34°39' E 135°22'0 0.0
2018-Feb-13 15:29N 34°39' E 135°22'0 0.0
2018-Feb-13 14:59N 34°39' E 135°22'0 0.0
2018-Feb-13 14:29N 34°39' E 135°22'0 0.0
2018-Feb-13 13:59N 34°39' E 135°22'0 0.1
2018-Feb-13 13:29N 34°39' E 135°22'0 0.1
2018-Feb-13 12:59N 34°39' E 135°22'0 0.0
2018-Feb-13 12:29N 34°39' E 135°22'0 0.0
2018-Feb-13 11:59N 34°39' E 135°22'0 0.0
2018-Feb-13 11:26N 34°39' E 135°22'0 0.0
2018-Feb-13 10:59N 34°39' E 135°22'0 0.0
2018-Feb-13 10:29N 34°39' E 135°22'0 0.0
2018-Feb-13 09:59N 34°39' E 135°22'0 0.0
2018-Feb-13 09:29N 34°39' E 135°22'0 0.0
2018-Feb-13 09:00N 34°39' E 135°22'0 0.0
2018-Feb-13 08:30N 34°39' E 135°22'0 0.1
2018-Feb-13 08:00N 34°39' E 135°22'3 5.6
2018-Feb-13 07:30N 34°40' E 135°25'0 0.0
2018-Feb-13 06:59N 34°40' E 135°25'0 0.0
2018-Feb-13 06:29N 34°40' E 135°25'3 5.6
2018-Feb-13 06:00N 34°39' E 135°22'0 0.1
2018-Feb-13 05:29N 34°40' E 135°22'0 0.0
2018-Feb-13 04:59N 34°40' E 135°22'0 0.0
2018-Feb-13 04:29N 34°40' E 135°22'0 0.0
2018-Feb-13 03:59N 34°40' E 135°22'0 0.0
2018-Feb-13 03:30N 34°40' E 135°22'2 3.9
2018-Feb-13 03:00N 34°40' E 135°24'1 1.5
2018-Feb-13 02:30N 34°40' E 135°25'0 0.0
2018-Feb-13 02:00N 34°40' E 135°25'0 0.0
2018-Feb-13 01:30N 34°40' E 135°25'0 0.2
2018-Feb-13 01:00N 34°40' E 135°25'0 0.7
2018-Feb-13 00:30N 34°39' E 135°25'3 5.2
2018-Feb-13 00:01N 34°39' E 135°21'0 0.1
2018-Feb-12 23:30N 34°39' E 135°21'0 0.0
2018-Feb-12 23:00N 34°39' E 135°21'0 0.0
2018-Feb-12 22:30N 34°39' E 135°21'0 0.0
2018-Feb-12 22:00N 34°39' E 135°21'0 0.0
2018-Feb-12 21:30N 34°39' E 135°21'0 0.0
2018-Feb-12 21:00N 34°39' E 135°21'0 0.0
2018-Feb-12 20:30N 34°39' E 135°21'0 0.0
2018-Feb-12 20:00N 34°39' E 135°21'0 0.0
2018-Feb-12 19:30N 34°39' E 135°21'0 0.0
2018-Feb-12 19:00N 34°39' E 135°21'0 0.0
2018-Feb-12 18:30N 34°39' E 135°21'0 0.0
2018-Feb-12 18:00N 34°39' E 135°21'0 0.0
2018-Feb-12 17:30N 34°39' E 135°21'0 0.0
2018-Feb-12 17:00N 34°39' E 135°21'0 0.0
2018-Feb-12 16:30N 34°39' E 135°21'0 0.0
2018-Feb-12 16:00N 34°39' E 135°21'0 0.0
2018-Feb-12 15:30N 34°39' E 135°21'0 0.0
2018-Feb-12 15:00N 34°39' E 135°21'0 0.0
2018-Feb-12 14:30N 34°39' E 135°21'0 0.0
2018-Feb-12 14:00N 34°39' E 135°21'0 0.0
2018-Feb-12 13:30N 34°39' E 135°21'0 0.0
2018-Feb-12 13:00N 34°39' E 135°21'0 0.1
2018-Feb-12 12:30N 34°39' E 135°21'0 0.0
2018-Feb-12 12:00N 34°39' E 135°21'0 0.0
2018-Feb-12 11:30N 34°39' E 135°21'0 0.0
2018-Feb-12 11:00N 34°39' E 135°21'0 0.0
2018-Feb-12 10:30N 34°39' E 135°21'0 0.1
2018-Feb-12 10:00N 34°39' E 135°21'0 0.0
2018-Feb-12 09:30N 34°39' E 135°21'0 0.0
2018-Feb-12 09:00N 34°39' E 135°21'0 0.0
2018-Feb-12 08:30N 34°39' E 135°21'0 0.0
2018-Feb-12 08:00N 34°39' E 135°21'0 0.0
2018-Feb-12 07:30N 34°39' E 135°21'0 0.0
2018-Feb-12 06:59N 34°39' E 135°21'0 0.0
2018-Feb-12 06:29N 34°39' E 135°21'0 0.0
2018-Feb-12 05:59N 34°39' E 135°21'0 0.1
2018-Feb-12 05:30N 34°39' E 135°21'2 3.7
2018-Feb-12 05:00N 34°38' E 135°20'510.4
2018-Feb-12 04:30N 34°33' E 135°17'510.2
2018-Feb-12 04:00N 34°29' E 135°13'510.2
2018-Feb-12 03:30N 34°25' E 135°10'510.0
2018-Feb-12 03:00N 34°21' E 135°06'5 9.2
2018-Feb-12 02:30N 34°17' E 135°04'5 9.1
2018-Feb-12 02:00N 34°12' E 135°03'510.2
2018-Feb-12 01:30N 34°07' E 135°03'510.2
2018-Feb-12 01:00N 34°02' E 135°02'510.0
2018-Feb-12 00:30N 33°57' E 135°02'5 9.5
2018-Feb-11 23:59N 33°52' E 135°02'102 7.0
2018-Feb-11 09:27N 34°38' E 136°53'511.1
2018-Feb-11 09:00N 34°42' E 136°49'611.8
2018-Feb-11 08:30N 34°48' E 136°46'612.0
2018-Feb-11 08:00N 34°54' E 136°45'4 8.5
2018-Feb-11 07:30N 34°57' E 136°47'611.2
2018-Feb-11 07:00N 35°02' E 136°51'2 3.3
2018-Feb-11 06:30N 35°04' E 136°52'0 0.0
2018-Feb-11 06:00N 35°04' E 136°52'0 0.0
2018-Feb-11 05:30N 35°04' E 136°52'0 0.0
2018-Feb-11 04:59N 35°04' E 136°52'0 0.0
2018-Feb-11 04:29N 35°04' E 136°52'0 0.0
2018-Feb-11 03:59N 35°04' E 136°52'0 0.0
2018-Feb-11 03:17N 35°04' E 136°52'0 0.0
2018-Feb-11 02:59N 35°04' E 136°52'0 0.0
2018-Feb-11 02:30N 35°04' E 136°52'2 4.6
2018-Feb-11 02:00N 35°01' E 136°51'510.4
2018-Feb-11 01:30N 34°57' E 136°47'5 9.5
2018-Feb-11 01:00N 34°52' E 136°47'510.1
2018-Feb-11 00:30N 34°47' E 136°48'510.1
2018-Feb-11 00:00N 34°43' E 136°51'103 6.3
2018-Feb-10 07:50N 33°49' E 135°05'4 9.6
2018-Feb-10 07:28N 33°52' E 135°03'4 9.8
2018-Feb-10 07:00N 33°56' E 135°02'510.6
2018-Feb-10 06:30N 34°01' E 135°02'510.7
2018-Feb-10 06:00N 34°07' E 135°02'611.0
2018-Feb-10 05:30N 34°12' E 135°03'611.2
2018-Feb-10 05:00N 34°18' E 135°04'611.0
2018-Feb-10 04:30N 34°23' E 135°07'611.2
2018-Feb-10 04:00N 34°27' E 135°10'511.1
2018-Feb-10 03:31N 34°32' E 135°14'611.1
2018-Feb-10 03:00N 34°37' E 135°17'2 4.5
2018-Feb-10 02:30N 34°39' E 135°18'0 0.0
2018-Feb-10 02:00N 34°39' E 135°18'0 0.0
2018-Feb-10 01:30N 34°39' E 135°18'0 0.0
2018-Feb-10 01:00N 34°39' E 135°18'0 0.0
2018-Feb-10 00:30N 34°39' E 135°18'0 0.0
2018-Feb-10 00:00N 34°39' E 135°18'0 0.0
2018-Feb-09 23:30N 34°39' E 135°18'0 0.0
2018-Feb-09 23:00N 34°39' E 135°18'0 0.0
2018-Feb-09 22:46N 34°39' E 135°18'0 0.2
2018-Feb-09 21:30N 34°39' E 135°18'1 0.1
2018-Feb-09 07:30N 34°38' E 135°17'2010.1
2018-Feb-09 05:30N 34°34' E 134°53'510.9
2018-Feb-09 05:00N 34°32' E 134°47'  
Track history (hours):
 
Tides and Currents Weather Stations Pressure Air Temp Water Temp Dewpoint Dewpoint Depression Visibility Wind Speed Wind Dir Waves Ship Positions

Shinkyokuhoumaru

Last reported at 2018-Feb-18 09:16 UTC. Time now 2018-Feb-19 01:40 UTC.
Position N 34°34' E 138°16'.

Length 52 m; draft 3 m.

Type: Tanker. MMSI: 430253169.

Date/timePositionNaut miles runAvg speedWind from/ knotsBaromVisibWave heightAir tempDewpointWater temp
2018-Feb-18 09:16N 34°34' E 138°16'6 8.5
2018-Feb-18 08:30N 34°36' E 138°24'4 8.5
2018-Feb-18 07:59N 34°37' E 138°29'6 9.7
2018-Feb-18 07:23N 34°36' E 138°36'411.0
2018-Feb-18 07:00N 34°36' E 138°41'510.3
2018-Feb-18 06:29N 34°35' E 138°47'510.1
2018-Feb-18 06:00N 34°36' E 138°53'5 9.7
2018-Feb-18 05:29N 34°38' E 138°59'510.0
2018-Feb-18 05:00N 34°42' E 139°02'611.2
2018-Feb-18 04:27N 34°47' E 139°06'811.6
2018-Feb-18 03:46N 34°54' E 139°12'410.1
2018-Feb-18 03:23N 34°56' E 139°15'4 9.7
2018-Feb-18 03:00N 34°58' E 139°19'5 9.3
2018-Feb-18 02:28N 35°00' E 139°25'4 9.5
2018-Feb-18 02:00N 35°02' E 139°29'510.3
2018-Feb-18 01:29N 35°05' E 139°35'611.2
2018-Feb-18 00:59N 35°07' E 139°41'611.3
2018-Feb-18 00:30N 35°12' E 139°45'510.8
2018-Feb-18 00:00N 35°17' E 139°45'611.5
2018-Feb-17 23:30N 35°22' E 139°42'611.0
2018-Feb-17 23:00N 35°27' E 139°46'4 7.1
2018-Feb-17 22:30N 35°29' E 139°49'0 0.0
2018-Feb-17 22:00N 35°29' E 139°49'0 0.0
2018-Feb-17 21:30N 35°29' E 139°49'0 0.0
2018-Feb-17 20:57N 35°29' E 139°49'0 0.0
2018-Feb-17 20:27N 35°29' E 139°49'0 0.0
2018-Feb-17 20:00N 35°29' E 139°49'0 0.0
2018-Feb-17 19:27N 35°29' E 139°49'0 0.0
2018-Feb-17 18:57N 35°29' E 139°49'0 0.0
2018-Feb-17 18:30N 35°29' E 139°49'0 0.0
2018-Feb-17 18:00N 35°29' E 139°49'0 0.0
2018-Feb-17 17:30N 35°29' E 139°49'0 0.0
2018-Feb-17 17:00N 35°29' E 139°49'0 0.0
2018-Feb-17 16:30N 35°29' E 139°49'0 0.0
2018-Feb-17 16:00N 35°29' E 139°49'0 0.0
2018-Feb-17 15:30N 35°29' E 139°49'0 0.0
2018-Feb-17 14:54N 35°29' E 139°49'0 0.0
2018-Feb-17 14:30N 35°29' E 139°49'0 0.0
2018-Feb-17 14:00N 35°29' E 139°49'0 0.0
2018-Feb-17 13:30N 35°29' E 139°49'0 0.0
2018-Feb-17 13:00N 35°29' E 139°49'0 0.0
2018-Feb-17 12:27N 35°29' E 139°49'0 0.0
2018-Feb-17 12:00N 35°29' E 139°49'0 0.0
2018-Feb-17 11:27N 35°29' E 139°49'0 0.0
2018-Feb-17 10:57N 35°29' E 139°49'0 0.0
2018-Feb-17 10:29N 35°29' E 139°49'0 0.0
2018-Feb-17 09:59N 35°29' E 139°49'0 0.0
2018-Feb-17 09:30N 35°29' E 139°49'0 0.0
2018-Feb-17 08:59N 35°29' E 139°49'0 0.0
2018-Feb-17 08:29N 35°29' E 139°49'0 0.3
2018-Feb-17 08:00N 35°29' E 139°49'4 7.1
2018-Feb-17 07:30N 35°32' E 139°46'0 0.0
2018-Feb-17 06:59N 35°32' E 139°46'0 0.0
2018-Feb-17 06:29N 35°32' E 139°46'0 0.0
2018-Feb-17 05:59N 35°32' E 139°46'0 0.0
2018-Feb-17 05:29N 35°32' E 139°46'0 0.0
2018-Feb-17 04:59N 35°32' E 139°46'0 0.0
2018-Feb-17 04:29N 35°32' E 139°46'0 0.0
2018-Feb-17 03:56N 35°32' E 139°46'0 0.0
2018-Feb-17 03:29N 35°32' E 139°46'0 0.0
2018-Feb-17 02:59N 35°32' E 139°46'0 0.0
2018-Feb-17 02:29N 35°32' E 139°46'0 0.0
2018-Feb-17 01:56N 35°32' E 139°46'0 0.0
2018-Feb-17 01:29N 35°32' E 139°46'0 0.0
2018-Feb-17 00:59N 35°32' E 139°46'0 0.0
2018-Feb-17 00:29N 35°32' E 139°46'0 0.0
2018-Feb-16 23:59N 35°32' E 139°46'0 0.1
2018-Feb-16 23:30N 35°32' E 139°46'1 2.6
2018-Feb-16 23:00N 35°30' E 139°47'2 4.6
2018-Feb-16 22:29N 35°29' E 139°49'0 0.0
2018-Feb-16 21:53N 35°29' E 139°49'0 0.0
2018-Feb-16 21:29N 35°29' E 139°49'0 0.0
2018-Feb-16 20:59N 35°29' E 139°49'0 0.0
2018-Feb-16 20:29N 35°29' E 139°49'0 0.0
2018-Feb-16 19:59N 35°29' E 139°49'0 0.0
2018-Feb-16 19:23N 35°29' E 139°49'3 7.6
2018-Feb-16 19:00N 35°27' E 139°47'611.2
2018-Feb-16 18:30N 35°21' E 139°45'510.4
2018-Feb-16 18:00N 35°16' E 139°46'510.8
2018-Feb-16 17:30N 35°11' E 139°47'510.5
2018-Feb-16 17:00N 35°06' E 139°45'510.6
2018-Feb-16 16:30N 35°03' E 139°39'1412.3
2018-Feb-16 15:20N 34°55' E 139°25'513.3
2018-Feb-16 14:58N 34°53' E 139°20'613.0
2018-Feb-16 14:30N 34°49' E 139°14'912.4
2018-Feb-16 13:48N 34°43' E 139°06'311.6
2018-Feb-16 13:30N 34°40' E 139°03'612.3
2018-Feb-16 12:59N 34°36' E 138°58'612.2
2018-Feb-16 12:30N 34°34' E 138°51'711.7
2018-Feb-16 11:56N 34°34' E 138°43'511.6
2018-Feb-16 11:29N 34°33' E 138°36'711.4
2018-Feb-16 10:54N 34°33' E 138°28'611.3
2018-Feb-16 10:21N 34°32' E 138°21'411.9
2018-Feb-16 10:00N 34°32' E 138°16'165 9.1
2018-Feb-15 15:53N 33°49' E 135°03'511.5
2018-Feb-15 15:29N 33°52' E 134°60'511.1
2018-Feb-15 15:00N 33°57' E 134°56'611.1
2018-Feb-15 14:27N 34°01' E 134°51'511.1
2018-Feb-15 14:00N 34°05' E 134°47'611.6
2018-Feb-15 13:28N 34°10' E 134°43'611.9
2018-Feb-15 12:59N 34°15' E 134°39'510.6
2018-Feb-15 12:30N 34°17' E 134°33'5 9.9
2018-Feb-15 11:58N 34°19' E 134°27'510.2
2018-Feb-15 11:30N 34°21' E 134°22'7 0.3
2018-Feb-14 12:28N 34°25' E 134°15'611.4
2018-Feb-14 11:59N 34°25' E 134°22'611.5
2018-Feb-14 11:29N 34°28' E 134°28'511.5
2018-Feb-14 11:00N 34°30' E 134°34'611.5
2018-Feb-14 10:31N 34°32' E 134°41'611.9
2018-Feb-14 10:00N 34°34' E 134°47'612.5
2018-Feb-14 09:30N 34°36' E 134°55'611.4
2018-Feb-14 09:00N 34°37' E 135°01'611.6
2018-Feb-14 08:30N 34°36' E 135°08'511.0
2018-Feb-14 08:00N 34°37' E 135°15'510.8
2018-Feb-14 07:30N 34°39' E 135°21'3 6.6
2018-Feb-14 07:00N 34°40' E 135°25'0 0.0
2018-Feb-14 06:30N 34°40' E 135°25'0 0.0
2018-Feb-14 06:00N 34°40' E 135°25'0 0.0
2018-Feb-14 05:30N 34°40' E 135°25'0 0.0
2018-Feb-14 05:00N 34°40' E 135°25'0 0.0
2018-Feb-14 04:30N 34°40' E 135°25'0 0.1
2018-Feb-14 04:00N 34°40' E 135°25'0 0.3
2018-Feb-14 03:30N 34°40' E 135°25'0 0.0
2018-Feb-14 02:59N 34°40' E 135°25'0 0.1
2018-Feb-14 02:29N 34°40' E 135°25'0 0.0
2018-Feb-14 01:59N 34°40' E 135°25'0 0.0
2018-Feb-14 01:29N 34°40' E 135°25'0 0.0
2018-Feb-14 00:59N 34°40' E 135°25'0 0.0
2018-Feb-14 00:29N 34°40' E 135°25'0 0.0
2018-Feb-13 23:59N 34°40' E 135°25'0 0.1
2018-Feb-13 23:27N 34°40' E 135°25'3 6.1
2018-Feb-13 23:00N 34°39' E 135°22'0 0.1
2018-Feb-13 22:29N 34°39' E 135°22'0 0.0
2018-Feb-13 21:59N 34°39' E 135°22'0 0.0
2018-Feb-13 21:29N 34°39' E 135°22'0 0.0
2018-Feb-13 20:59N 34°39' E 135°22'0 0.0
2018-Feb-13 20:29N 34°39' E 135°22'0 0.0
2018-Feb-13 19:59N 34°39' E 135°22'0 0.0
2018-Feb-13 19:29N 34°39' E 135°22'0 0.0
2018-Feb-13 18:59N 34°39' E 135°22'0 0.0
2018-Feb-13 18:29N 34°39' E 135°22'0 0.1
2018-Feb-13 17:59N 34°39' E 135°22'0 0.0
2018-Feb-13 17:29N 34°39' E 135°22'0 0.0
2018-Feb-13 16:59N 34°39' E 135°22'0 0.0
2018-Feb-13 16:26N 34°39' E 135°22'0 0.0
2018-Feb-13 15:56N 34°39' E 135°22'0 0.0
2018-Feb-13 15:29N 34°39' E 135°22'0 0.0
2018-Feb-13 14:59N 34°39' E 135°22'0 0.0
2018-Feb-13 14:29N 34°39' E 135°22'0 0.0
2018-Feb-13 13:59N 34°39' E 135°22'0 0.1
2018-Feb-13 13:29N 34°39' E 135°22'0 0.1
2018-Feb-13 12:59N 34°39' E 135°22'0 0.0
2018-Feb-13 12:29N 34°39' E 135°22'0 0.0
2018-Feb-13 11:59N 34°39' E 135°22'0 0.0
2018-Feb-13 11:26N 34°39' E 135°22'0 0.0
2018-Feb-13 10:59N 34°39' E 135°22'0 0.0
2018-Feb-13 10:29N 34°39' E 135°22'0 0.0
2018-Feb-13 09:59N 34°39' E 135°22'0 0.0
2018-Feb-13 09:29N 34°39' E 135°22'0 0.0
2018-Feb-13 09:00N 34°39' E 135°22'0 0.0
2018-Feb-13 08:30N 34°39' E 135°22'0 0.1
2018-Feb-13 08:00N 34°39' E 135°22'3 5.6
2018-Feb-13 07:30N 34°40' E 135°25'0 0.0
2018-Feb-13 06:59N 34°40' E 135°25'0 0.0
2018-Feb-13 06:29N 34°40' E 135°25'3 5.6
2018-Feb-13 06:00N 34°39' E 135°22'0 0.1
2018-Feb-13 05:29N 34°40' E 135°22'0 0.0
2018-Feb-13 04:59N 34°40' E 135°22'0 0.0
2018-Feb-13 04:29N 34°40' E 135°22'0 0.0
2018-Feb-13 03:59N 34°40' E 135°22'0 0.0
2018-Feb-13 03:30N 34°40' E 135°22'2 3.9
2018-Feb-13 03:00N 34°40' E 135°24'1 1.5
2018-Feb-13 02:30N 34°40' E 135°25'0 0.0
2018-Feb-13 02:00N 34°40' E 135°25'0 0.0
2018-Feb-13 01:30N 34°40' E 135°25'0 0.2
2018-Feb-13 01:00N 34°40' E 135°25'0 0.7
2018-Feb-13 00:30N 34°39' E 135°25'3 5.2
2018-Feb-13 00:01N 34°39' E 135°21'0 0.1
2018-Feb-12 23:30N 34°39' E 135°21'0 0.0
2018-Feb-12 23:00N 34°39' E 135°21'0 0.0
2018-Feb-12 22:30N 34°39' E 135°21'0 0.0
2018-Feb-12 22:00N 34°39' E 135°21'0 0.0
2018-Feb-12 21:30N 34°39' E 135°21'0 0.0
2018-Feb-12 21:00N 34°39' E 135°21'0 0.0
2018-Feb-12 20:30N 34°39' E 135°21'0 0.0
2018-Feb-12 20:00N 34°39' E 135°21'0 0.0
2018-Feb-12 19:30N 34°39' E 135°21'0 0.0
2018-Feb-12 19:00N 34°39' E 135°21'0 0.0
2018-Feb-12 18:30N 34°39' E 135°21'0 0.0
2018-Feb-12 18:00N 34°39' E 135°21'0 0.0
2018-Feb-12 17:30N 34°39' E 135°21'0 0.0
2018-Feb-12 17:00N 34°39' E 135°21'0 0.0
2018-Feb-12 16:30N 34°39' E 135°21'0 0.0
2018-Feb-12 16:00N 34°39' E 135°21'0 0.0
2018-Feb-12 15:30N 34°39' E 135°21'0 0.0
2018-Feb-12 15:00N 34°39' E 135°21'0 0.0
2018-Feb-12 14:30N 34°39' E 135°21'0 0.0
2018-Feb-12 14:00N 34°39' E 135°21'0 0.0
2018-Feb-12 13:30N 34°39' E 135°21'0 0.0
2018-Feb-12 13:00N 34°39' E 135°21'0 0.1
2018-Feb-12 12:30N 34°39' E 135°21'0 0.0
2018-Feb-12 12:00N 34°39' E 135°21'0 0.0
2018-Feb-12 11:30N 34°39' E 135°21'0 0.0
2018-Feb-12 11:00N 34°39' E 135°21'0 0.0
2018-Feb-12 10:30N 34°39' E 135°21'0 0.1
2018-Feb-12 10:00N 34°39' E 135°21'0 0.0
2018-Feb-12 09:30N 34°39' E 135°21'0 0.0
2018-Feb-12 09:00N 34°39' E 135°21'0 0.0
2018-Feb-12 08:30N 34°39' E 135°21'0 0.0
2018-Feb-12 08:00N 34°39' E 135°21'0 0.0
2018-Feb-12 07:30N 34°39' E 135°21'0 0.0
2018-Feb-12 06:59N 34°39' E 135°21'0 0.0
2018-Feb-12 06:29N 34°39' E 135°21'0 0.0
2018-Feb-12 05:59N 34°39' E 135°21'0 0.1
2018-Feb-12 05:30N 34°39' E 135°21'2 3.7
2018-Feb-12 05:00N 34°38' E 135°20'510.4
2018-Feb-12 04:30N 34°33' E 135°17'510.2
2018-Feb-12 04:00N 34°29' E 135°13'510.2
2018-Feb-12 03:30N 34°25' E 135°10'510.0
2018-Feb-12 03:00N 34°21' E 135°06'5 9.2
2018-Feb-12 02:30N 34°17' E 135°04'5 9.1
2018-Feb-12 02:00N 34°12' E 135°03'510.2
2018-Feb-12 01:30N 34°07' E 135°03'510.2
2018-Feb-12 01:00N 34°02' E 135°02'510.0
2018-Feb-12 00:30N 33°57' E 135°02'5 9.5
2018-Feb-11 23:59N 33°52' E 135°02'102 7.0
2018-Feb-11 09:27N 34°38' E 136°53'511.1
2018-Feb-11 09:00N 34°42' E 136°49'611.8
2018-Feb-11 08:30N 34°48' E 136°46'612.0
2018-Feb-11 08:00N 34°54' E 136°45'4 8.5
2018-Feb-11 07:30N 34°57' E 136°47'611.2
2018-Feb-11 07:00N 35°02' E 136°51'2 3.3
2018-Feb-11 06:30N 35°04' E 136°52'0 0.0
2018-Feb-11 06:00N 35°04' E 136°52'0 0.0
2018-Feb-11 05:30N 35°04' E 136°52'0 0.0
2018-Feb-11 04:59N 35°04' E 136°52'0 0.0
2018-Feb-11 04:29N 35°04' E 136°52'0 0.0
2018-Feb-11 03:59N 35°04' E 136°52'0 0.0
2018-Feb-11 03:17N 35°04' E 136°52'0 0.0
2018-Feb-11 02:59N 35°04' E 136°52'0 0.0
2018-Feb-11 02:30N 35°04' E 136°52'2 4.6
2018-Feb-11 02:00N 35°01' E 136°51'510.4
2018-Feb-11 01:30N 34°57' E 136°47'5 9.5
2018-Feb-11 01:00N 34°52' E 136°47'510.1
2018-Feb-11 00:30N 34°47' E 136°48'510.1
2018-Feb-11 00:00N 34°43' E 136°51'103 6.3
2018-Feb-10 07:50N 33°49' E 135°05'4 9.6
2018-Feb-10 07:28N 33°52' E 135°03'4 9.8
2018-Feb-10 07:00N 33°56' E 135°02'510.6
2018-Feb-10 06:30N 34°01' E 135°02'510.7
2018-Feb-10 06:00N 34°07' E 135°02'611.0
2018-Feb-10 05:30N 34°12' E 135°03'611.2
2018-Feb-10 05:00N 34°18' E 135°04'611.0
2018-Feb-10 04:30N 34°23' E 135°07'611.2
2018-Feb-10 04:00N 34°27' E 135°10'511.1
2018-Feb-10 03:31N 34°32' E 135°14'611.1
2018-Feb-10 03:00N 34°37' E 135°17'2 4.5
2018-Feb-10 02:30N 34°39' E 135°18'0 0.0
2018-Feb-10 02:00N 34°39' E 135°18'0 0.0
2018-Feb-10 01:30N 34°39' E 135°18'0 0.0
2018-Feb-10 01:00N 34°39' E 135°18'0 0.0
2018-Feb-10 00:30N 34°39' E 135°18'0 0.0
2018-Feb-10 00:00N 34°39' E 135°18'0 0.0
2018-Feb-09 23:30N 34°39' E 135°18'0 0.0
2018-Feb-09 23:00N 34°39' E 135°18'0 0.0
2018-Feb-09 22:46N 34°39' E 135°18'0 0.2
2018-Feb-09 21:30N 34°39' E 135°18'1 0.1
2018-Feb-09 07:30N 34°38' E 135°17'2010.1
2018-Feb-09 05:30N 34°34' E 134°53'510.9
2018-Feb-09 05:00N 34°32' E 134°47'  

Dump ship's entire track history